Terminal Aerodrome Forecast
Issued by NWS

Home | Current Version | Previous Version | Text Only | Print | Product List | Glossary On
Versions: 1 2 3 4 5 6 7 8 9 10 11 12 13 14 15 16 17 18
000
FTUS45 KBYZ 161727
TAFLVM
TAF
KLVM 161727Z 1618/1718 25017G24KT P6SM VCSH FEW040 BKN070
     FM170200 25011KT 6SM -RASN OVC050
     FM170400 23007KT 4SM -SN BR SCT015 BKN025
     FM170700 23007KT P6SM VCSH SCT015 BKN035
     FM171200 23013KT P6SM SCT050=

USA.gov is the U.S. government's official web portal to all federal, state and local government web resources and services.